sensor_id;sensor_type;location;lat;lon;timestamp;temperature;humidity
6724;DHT22;3399;52.530;13.304;2023-05-10T00:01:52;13.70;68.00
6724;DHT22;3399;52.530;13.304;2023-05-10T00:04:18;13.70;68.40
6724;DHT22;3399;52.530;13.304;2023-05-10T00:06:43;13.60;68.80
6724;DHT22;3399;52.530;13.304;2023-05-10T00:09:09;13.60;69.00
6724;DHT22;3399;52.530;13.304;2023-05-10T00:11:34;13.70;69.20
6724;DHT22;3399;52.530;13.304;2023-05-10T00:14:00;13.60;69.90
6724;DHT22;3399;52.530;13.304;2023-05-10T00:16:25;13.60;69.70
6724;DHT22;3399;52.530;13.304;2023-05-10T00:18:51;13.60;70.20
6724;DHT22;3399;52.530;13.304;2023-05-10T00:21:19;13.50;70.20
6724;DHT22;3399;52.530;13.304;2023-05-10T00:23:45;13.60;70.50
6724;DHT22;3399;52.530;13.304;2023-05-10T00:26:10;13.50;70.70
6724;DHT22;3399;52.530;13.304;2023-05-10T00:28:36;13.50;70.90
6724;DHT22;3399;52.530;13.304;2023-05-10T00:31:01;13.50;71.40
6724;DHT22;3399;52.530;13.304;2023-05-10T00:33:30;13.40;71.50
6724;DHT22;3399;52.530;13.304;2023-05-10T00:35:56;13.40;72.00
6724;DHT22;3399;52.530;13.304;2023-05-10T00:38:21;13.40;72.20
6724;DHT22;3399;52.530;13.304;2023-05-10T00:40:47;13.40;72.20
6724;DHT22;3399;52.530;13.304;2023-05-10T00:43:12;13.40;72.60
6724;DHT22;3399;52.530;13.304;2023-05-10T00:45:40;13.30;72.80
6724;DHT22;3399;52.530;13.304;2023-05-10T00:48:06;13.30;73.40
6724;DHT22;3399;52.530;13.304;2023-05-10T00:50:32;13.30;73.80
6724;DHT22;3399;52.530;13.304;2023-05-10T00:53:02;13.30;73.90
6724;DHT22;3399;52.530;13.304;2023-05-10T00:55:28;13.20;74.40
6724;DHT22;3399;52.530;13.304;2023-05-10T00:57:54;13.20;74.70
6724;DHT22;3399;52.530;13.304;2023-05-10T01:00:20;13.20;74.90
6724;DHT22;3399;52.530;13.304;2023-05-10T01:02:46;13.20;75.00
6724;DHT22;3399;52.530;13.304;2023-05-10T01:05:12;13.10;75.70
6724;DHT22;3399;52.530;13.304;2023-05-10T01:07:38;13.10;76.80
6724;DHT22;3399;52.530;13.304;2023-05-10T01:10:06;12.90;76.20
6724;DHT22;3399;52.530;13.304;2023-05-10T01:12:32;12.90;77.40
6724;DHT22;3399;52.530;13.304;2023-05-10T01:15:00;12.90;77.50
6724;DHT22;3399;52.530;13.304;2023-05-10T01:17:27;12.90;77.70
6724;DHT22;3399;52.530;13.304;2023-05-10T01:19:52;12.90;78.20
6724;DHT22;3399;52.530;13.304;2023-05-10T01:25:48;12.90;78.20
6724;DHT22;3399;52.530;13.304;2023-05-10T01:28:36;12.70;79.00
6724;DHT22;3399;52.530;13.304;2023-05-10T01:31:18;12.70;79.60
6724;DHT22;3399;52.530;13.304;2023-05-10T01:33:52;12.70;79.20
6724;DHT22;3399;52.530;13.304;2023-05-10T01:36:39;12.70;79.60
6724;DHT22;3399;52.530;13.304;2023-05-10T01:39:31;12.70;80.40
6724;DHT22;3399;52.530;13.304;2023-05-10T01:42:10;12.70;80.10
6724;DHT22;3399;52.530;13.304;2023-05-10T01:44:53;12.50;80.90
6724;DHT22;3399;52.530;13.304;2023-05-10T01:47:37;12.50;81.60
6724;DHT22;3399;52.530;13.304;2023-05-10T01:50:09;12.50;82.20
6724;DHT22;3399;52.530;13.304;2023-05-10T01:52:42;12.50;82.50
6724;DHT22;3399;52.530;13.304;2023-05-10T01:55:11;12.50;82.70
6724;DHT22;3399;52.530;13.304;2023-05-10T01:57:40;12.40;82.70
6724;DHT22;3399;52.530;13.304;2023-05-10T02:00:08;12.40;83.30
6724;DHT22;3399;52.530;13.304;2023-05-10T02:02:40;12.40;83.60
6724;DHT22;3399;52.530;13.304;2023-05-10T02:05:08;12.20;84.40
6724;DHT22;3399;52.530;13.304;2023-05-10T02:07:35;12.30;85.20
6724;DHT22;3399;52.530;13.304;2023-05-10T02:10:03;12.30;85.40
6724;DHT22;3399;52.530;13.304;2023-05-10T02:12:29;12.20;86.10
6724;DHT22;3399;52.530;13.304;2023-05-10T02:14:58;12.20;85.90
6724;DHT22;3399;52.530;13.304;2023-05-10T02:17:25;12.10;86.80
6724;DHT22;3399;52.530;13.304;2023-05-10T02:19:51;12.10;87.50
6724;DHT22;3399;52.530;13.304;2023-05-10T02:22:18;12.00;87.80
6724;DHT22;3399;52.530;13.304;2023-05-10T02:24:45;12.00;88.30
6724;DHT22;3399;52.530;13.304;2023-05-10T02:27:12;12.00;89.30
6724;DHT22;3399;52.530;13.304;2023-05-10T02:29:38;11.90;89.70
6724;DHT22;3399;52.530;13.304;2023-05-10T02:32:05;11.90;90.00
6724;DHT22;3399;52.530;13.304;2023-05-10T02:34:31;11.90;90.40
6724;DHT22;3399;52.530;13.304;2023-05-10T02:36:58;11.90;90.30
6724;DHT22;3399;52.530;13.304;2023-05-10T02:39:24;12.00;90.40
6724;DHT22;3399;52.530;13.304;2023-05-10T02:41:52;11.90;90.80
6724;DHT22;3399;52.530;13.304;2023-05-10T02:44:19;11.90;91.00
6724;DHT22;3399;52.530;13.304;2023-05-10T02:46:45;11.80;91.10
6724;DHT22;3399;52.530;13.304;2023-05-10T02:49:12;11.90;91.10
6724;DHT22;3399;52.530;13.304;2023-05-10T02:51:41;11.70;91.30
6724;DHT22;3399;52.530;13.304;2023-05-10T02:54:18;11.70;91.60
6724;DHT22;3399;52.530;13.304;2023-05-10T02:56:51;11.50;92.00
6724;DHT22;3399;52.530;13.304;2023-05-10T02:59:19;11.50;92.60
6724;DHT22;3399;52.530;13.304;2023-05-10T03:01:44;11.60;92.60
6724;DHT22;3399;52.530;13.304;2023-05-10T03:04:10;11.60;92.80
6724;DHT22;3399;52.530;13.304;2023-05-10T03:06:36;11.60;92.90
6724;DHT22;3399;52.530;13.304;2023-05-10T03:09:02;11.60;93.00
6724;DHT22;3399;52.530;13.304;2023-05-10T03:17:15;11.40;93.90
6724;DHT22;3399;52.530;13.304;2023-05-10T03:19:58;11.40;94.00
6724;DHT22;3399;52.530;13.304;2023-05-10T03:22:44;11.40;94.00
6724;DHT22;3399;52.530;13.304;2023-05-10T03:25:11;11.30;94.60
6724;DHT22;3399;52.530;13.304;2023-05-10T03:27:39;11.40;94.00
6724;DHT22;3399;52.530;13.304;2023-05-10T03:30:07;11.40;94.10
6724;DHT22;3399;52.530;13.304;2023-05-10T03:32:33;11.40;94.30
6724;DHT22;3399;52.530;13.304;2023-05-10T03:35:00;11.40;94.40
6724;DHT22;3399;52.530;13.304;2023-05-10T03:37:25;11.40;94.30
6724;DHT22;3399;52.530;13.304;2023-05-10T03:39:50;11.40;94.40
6724;DHT22;3399;52.530;13.304;2023-05-10T03:42:16;11.40;94.50
6724;DHT22;3399;52.530;13.304;2023-05-10T03:44:43;11.50;94.60
6724;DHT22;3399;52.530;13.304;2023-05-10T03:47:08;11.40;94.30
6724;DHT22;3399;52.530;13.304;2023-05-10T03:49:34;11.40;94.50
6724;DHT22;3399;52.530;13.304;2023-05-10T03:51:59;11.40;94.50
6724;DHT22;3399;52.530;13.304;2023-05-10T03:54:25;11.40;94.50
6724;DHT22;3399;52.530;13.304;2023-05-10T03:56:51;11.40;94.30
6724;DHT22;3399;52.530;13.304;2023-05-10T03:59:16;11.40;94.80
6724;DHT22;3399;52.530;13.304;2023-05-10T04:01:41;11.40;94.90
6724;DHT22;3399;52.530;13.304;2023-05-10T04:04:07;11.30;94.80
6724;DHT22;3399;52.530;13.304;2023-05-10T04:06:32;11.30;95.20
6724;DHT22;3399;52.530;13.304;2023-05-10T04:08:58;11.40;94.90
6724;DHT22;3399;52.530;13.304;2023-05-10T04:11:25;11.30;94.70
6724;DHT22;3399;52.530;13.304;2023-05-10T04:13:51;11.30;94.80
6724;DHT22;3399;52.530;13.304;2023-05-10T04:16:17;11.30;95.00
6724;DHT22;3399;52.530;13.304;2023-05-10T04:18:42;11.30;94.90
6724;DHT22;3399;52.530;13.304;2023-05-10T04:21:12;11.40;94.90
6724;DHT22;3399;52.530;13.304;2023-05-10T04:23:38;11.40;94.60
6724;DHT22;3399;52.530;13.304;2023-05-10T04:26:04;11.30;94.70
6724;DHT22;3399;52.530;13.304;2023-05-10T04:28:30;11.30;95.10
6724;DHT22;3399;52.530;13.304;2023-05-10T04:31:02;11.30;95.00
6724;DHT22;3399;52.530;13.304;2023-05-10T04:33:28;11.30;94.90
6724;DHT22;3399;52.530;13.304;2023-05-10T04:35:54;11.40;94.90
6724;DHT22;3399;52.530;13.304;2023-05-10T04:38:19;11.30;95.20
6724;DHT22;3399;52.530;13.304;2023-05-10T04:40:48;11.40;94.90
6724;DHT22;3399;52.530;13.304;2023-05-10T04:43:13;11.50;94.80
6724;DHT22;3399;52.530;13.304;2023-05-10T04:45:39;11.50;94.70
6724;DHT22;3399;52.530;13.304;2023-05-10T04:48:05;11.60;94.30
6724;DHT22;3399;52.530;13.304;2023-05-10T04:50:30;11.60;94.30
6724;DHT22;3399;52.530;13.304;2023-05-10T04:52:56;11.60;94.50
6724;DHT22;3399;52.530;13.304;2023-05-10T04:55:22;11.60;94.70
6724;DHT22;3399;52.530;13.304;2023-05-10T04:57:48;11.70;94.20
6724;DHT22;3399;52.530;13.304;2023-05-10T05:00:14;11.70;94.20
6724;DHT22;3399;52.530;13.304;2023-05-10T05:02:42;11.70;94.10
6724;DHT22;3399;52.530;13.304;2023-05-10T05:05:09;11.80;94.30
6724;DHT22;3399;52.530;13.304;2023-05-10T05:07:34;11.90;93.80
6724;DHT22;3399;52.530;13.304;2023-05-10T05:10:00;11.90;94.00
6724;DHT22;3399;52.530;13.304;2023-05-10T05:12:25;12.00;93.60
6724;DHT22;3399;52.530;13.304;2023-05-10T05:14:51;12.00;93.40
6724;DHT22;3399;52.530;13.304;2023-05-10T05:17:16;12.00;93.60
6724;DHT22;3399;52.530;13.304;2023-05-10T05:19:42;12.20;93.40
6724;DHT22;3399;52.530;13.304;2023-05-10T05:22:07;12.30;92.90
6724;DHT22;3399;52.530;13.304;2023-05-10T05:24:37;12.30;92.80
6724;DHT22;3399;52.530;13.304;2023-05-10T05:27:03;12.40;92.70
6724;DHT22;3399;52.530;13.304;2023-05-10T05:29:29;12.40;92.80
6724;DHT22;3399;52.530;13.304;2023-05-10T05:31:55;12.50;92.80
6724;DHT22;3399;52.530;13.304;2023-05-10T05:34:20;12.50;92.40
6724;DHT22;3399;52.530;13.304;2023-05-10T05:36:47;12.60;92.40
6724;DHT22;3399;52.530;13.304;2023-05-10T05:39:12;12.70;92.20
6724;DHT22;3399;52.530;13.304;2023-05-10T05:41:38;12.80;92.20
6724;DHT22;3399;52.530;13.304;2023-05-10T05:44:03;12.80;92.30
6724;DHT22;3399;52.530;13.304;2023-05-10T05:46:29;13.00;91.80
6724;DHT22;3399;52.530;13.304;2023-05-10T05:48:54;13.10;91.60
6724;DHT22;3399;52.530;13.304;2023-05-10T05:51:20;13.20;91.30
6724;DHT22;3399;52.530;13.304;2023-05-10T05:53:45;13.20;91.40
6724;DHT22;3399;52.530;13.304;2023-05-10T05:56:11;13.30;91.20
6724;DHT22;3399;52.530;13.304;2023-05-10T05:58:36;13.30;91.00
6724;DHT22;3399;52.530;13.304;2023-05-10T06:01:02;13.40;90.90
6724;DHT22;3399;52.530;13.304;2023-05-10T06:03:27;13.50;90.80
6724;DHT22;3399;52.530;13.304;2023-05-10T06:05:53;13.60;90.90
6724;DHT22;3399;52.530;13.304;2023-05-10T06:08:18;13.70;90.70
6724;DHT22;3399;52.530;13.304;2023-05-10T06:10:44;13.80;90.30
6724;DHT22;3399;52.530;13.304;2023-05-10T06:13:10;13.80;90.20
6724;DHT22;3399;52.530;13.304;2023-05-10T06:15:36;13.80;90.30
6724;DHT22;3399;52.530;13.304;2023-05-10T06:18:01;13.80;90.50
6724;DHT22;3399;52.530;13.304;2023-05-10T06:20:27;13.90;90.40
6724;DHT22;3399;52.530;13.304;2023-05-10T06:22:52;14.00;90.50
6724;DHT22;3399;52.530;13.304;2023-05-10T06:25:18;14.00;90.00
6724;DHT22;3399;52.530;13.304;2023-05-10T06:27:44;14.00;90.00
6724;DHT22;3399;52.530;13.304;2023-05-10T06:30:10;14.00;90.00
6724;DHT22;3399;52.530;13.304;2023-05-10T06:32:36;14.10;90.10
6724;DHT22;3399;52.530;13.304;2023-05-10T06:35:02;14.20;90.00
6724;DHT22;3399;52.530;13.304;2023-05-10T06:37:27;14.30;89.70
6724;DHT22;3399;52.530;13.304;2023-05-10T06:39:53;14.40;90.10
6724;DHT22;3399;52.530;13.304;2023-05-10T06:42:18;14.50;89.60
6724;DHT22;3399;52.530;13.304;2023-05-10T06:44:44;14.50;89.40
6724;DHT22;3399;52.530;13.304;2023-05-10T06:47:09;14.60;89.00
6724;DHT22;3399;52.530;13.304;2023-05-10T06:49:35;14.60;89.00
6724;DHT22;3399;52.530;13.304;2023-05-10T06:52:00;14.60;89.00
6724;DHT22;3399;52.530;13.304;2023-05-10T06:54:26;14.70;88.50
6724;DHT22;3399;52.530;13.304;2023-05-10T06:56:51;14.80;88.30
6724;DHT22;3399;52.530;13.304;2023-05-10T06:59:18;14.90;88.50
6724;DHT22;3399;52.530;13.304;2023-05-10T07:01:44;15.00;87.40
6724;DHT22;3399;52.530;13.304;2023-05-10T07:04:10;15.10;87.40
6724;DHT22;3399;52.530;13.304;2023-05-10T07:06:35;15.10;87.30
6724;DHT22;3399;52.530;13.304;2023-05-10T07:09:01;15.10;86.00
6724;DHT22;3399;52.530;13.304;2023-05-10T07:11:27;15.20;86.40
6724;DHT22;3399;52.530;13.304;2023-05-10T07:13:52;15.20;85.60
6724;DHT22;3399;52.530;13.304;2023-05-10T07:16:18;15.30;85.90
6724;DHT22;3399;52.530;13.304;2023-05-10T07:18:43;15.30;86.10
6724;DHT22;3399;52.530;13.304;2023-05-10T07:21:09;15.50;85.80
6724;DHT22;3399;52.530;13.304;2023-05-10T07:23:34;15.60;85.30
6724;DHT22;3399;52.530;13.304;2023-05-10T07:26:00;15.60;85.00
6724;DHT22;3399;52.530;13.304;2023-05-10T07:28:25;15.70;85.00
6724;DHT22;3399;52.530;13.304;2023-05-10T07:30:51;15.80;85.60
6724;DHT22;3399;52.530;13.304;2023-05-10T07:33:16;15.80;84.20
6724;DHT22;3399;52.530;13.304;2023-05-10T07:35:42;15.80;84.20
6724;DHT22;3399;52.530;13.304;2023-05-10T07:38:08;15.90;83.80
6724;DHT22;3399;52.530;13.304;2023-05-10T07:40:34;15.90;83.80
6724;DHT22;3399;52.530;13.304;2023-05-10T07:42:59;15.90;83.70
6724;DHT22;3399;52.530;13.304;2023-05-10T07:45:27;16.00;84.00
6724;DHT22;3399;52.530;13.304;2023-05-10T07:47:52;16.10;83.40
6724;DHT22;3399;52.530;13.304;2023-05-10T07:50:18;16.10;82.80
6724;DHT22;3399;52.530;13.304;2023-05-10T07:52:46;16.40;84.10
6724;DHT22;3399;52.530;13.304;2023-05-10T07:55:12;16.50;82.70
6724;DHT22;3399;52.530;13.304;2023-05-10T07:57:38;16.70;82.80
6724;DHT22;3399;52.530;13.304;2023-05-10T08:00:03;16.60;81.20
6724;DHT22;3399;52.530;13.304;2023-05-10T08:02:29;16.80;81.00
6724;DHT22;3399;52.530;13.304;2023-05-10T08:04:55;16.60;81.30
6724;DHT22;3399;52.530;13.304;2023-05-10T08:07:21;16.70;81.20
6724;DHT22;3399;52.530;13.304;2023-05-10T08:09:46;16.70;81.10
6724;DHT22;3399;52.530;13.304;2023-05-10T08:12:12;16.80;81.00
6724;DHT22;3399;52.530;13.304;2023-05-10T08:14:37;17.00;80.80
6724;DHT22;3399;52.530;13.304;2023-05-10T08:17:03;17.00;80.40
6724;DHT22;3399;52.530;13.304;2023-05-10T08:19:29;17.20;81.30
6724;DHT22;3399;52.530;13.304;2023-05-10T08:21:54;17.30;81.30
6724;DHT22;3399;52.530;13.304;2023-05-10T08:24:21;17.40;80.30
6724;DHT22;3399;52.530;13.304;2023-05-10T08:26:47;17.40;78.60
6724;DHT22;3399;52.530;13.304;2023-05-10T08:29:13;17.40;78.90
6724;DHT22;3399;52.530;13.304;2023-05-10T08:31:39;17.40;80.30
6724;DHT22;3399;52.530;13.304;2023-05-10T08:34:04;17.40;79.10
6724;DHT22;3399;52.530;13.304;2023-05-10T08:36:30;17.50;78.60
6724;DHT22;3399;52.530;13.304;2023-05-10T08:38:55;17.40;80.00
6724;DHT22;3399;52.530;13.304;2023-05-10T08:41:21;17.60;79.80
6724;DHT22;3399;52.530;13.304;2023-05-10T08:43:50;17.70;80.40
6724;DHT22;3399;52.530;13.304;2023-05-10T08:46:17;17.80;77.60
6724;DHT22;3399;52.530;13.304;2023-05-10T08:48:44;17.80;77.30
6724;DHT22;3399;52.530;13.304;2023-05-10T08:51:13;17.90;78.40
6724;DHT22;3399;52.530;13.304;2023-05-10T08:53:39;18.10;77.00
6724;DHT22;3399;52.530;13.304;2023-05-10T08:56:05;17.90;76.80
6724;DHT22;3399;52.530;13.304;2023-05-10T08:58:31;17.90;77.20
6724;DHT22;3399;52.530;13.304;2023-05-10T09:00:57;17.90;76.70
6724;DHT22;3399;52.530;13.304;2023-05-10T09:03:24;17.90;77.20
6724;DHT22;3399;52.530;13.304;2023-05-10T09:05:49;18.00;77.60
6724;DHT22;3399;52.530;13.304;2023-05-10T09:08:15;18.20;76.40
6724;DHT22;3399;52.530;13.304;2023-05-10T09:10:44;18.30;78.10
6724;DHT22;3399;52.530;13.304;2023-05-10T09:13:13;18.40;78.10
6724;DHT22;3399;52.530;13.304;2023-05-10T09:15:39;18.50;75.50
6724;DHT22;3399;52.530;13.304;2023-05-10T09:18:05;18.50;76.00
6724;DHT22;3399;52.530;13.304;2023-05-10T09:20:30;18.60;75.60
6724;DHT22;3399;52.530;13.304;2023-05-10T09:22:56;18.60;75.50
6724;DHT22;3399;52.530;13.304;2023-05-10T09:25:22;18.60;75.80
6724;DHT22;3399;52.530;13.304;2023-05-10T09:27:48;18.80;76.00
6724;DHT22;3399;52.530;13.304;2023-05-10T09:32:50;18.80;76.00
6724;DHT22;3399;52.530;13.304;2023-05-10T09:35:18;19.00;74.30
6724;DHT22;3399;52.530;13.304;2023-05-10T09:37:49;19.10;75.70
6724;DHT22;3399;52.530;13.304;2023-05-10T09:40:19;19.20;74.80
6724;DHT22;3399;52.530;13.304;2023-05-10T09:42:58;19.30;75.50
6724;DHT22;3399;52.530;13.304;2023-05-10T09:45:27;19.40;74.80
6724;DHT22;3399;52.530;13.304;2023-05-10T09:47:52;19.50;74.00
6724;DHT22;3399;52.530;13.304;2023-05-10T09:50:19;19.50;74.00
6724;DHT22;3399;52.530;13.304;2023-05-10T09:52:50;19.50;73.50
6724;DHT22;3399;52.530;13.304;2023-05-10T09:55:18;19.50;73.30
6724;DHT22;3399;52.530;13.304;2023-05-10T09:57:44;19.70;72.50
6724;DHT22;3399;52.530;13.304;2023-05-10T10:00:10;19.70;72.30
6724;DHT22;3399;52.530;13.304;2023-05-10T10:02:35;19.60;72.40
6724;DHT22;3399;52.530;13.304;2023-05-10T10:05:01;19.60;72.50
6724;DHT22;3399;52.530;13.304;2023-05-10T10:07:28;19.70;72.60
6724;DHT22;3399;52.530;13.304;2023-05-10T10:09:54;19.70;71.10
6724;DHT22;3399;52.530;13.304;2023-05-10T10:12:20;20.00;71.60
6724;DHT22;3399;52.530;13.304;2023-05-10T10:14:49;20.00;72.10
6724;DHT22;3399;52.530;13.304;2023-05-10T10:17:16;20.00;70.90
6724;DHT22;3399;52.530;13.304;2023-05-10T10:19:42;20.10;70.00
6724;DHT22;3399;52.530;13.304;2023-05-10T10:22:07;20.10;70.40
6724;DHT22;3399;52.530;13.304;2023-05-10T10:24:33;20.20;70.70
6724;DHT22;3399;52.530;13.304;2023-05-10T10:27:26;20.20;69.00
6724;DHT22;3399;52.530;13.304;2023-05-10T10:35:21;20.20;69.80
6724;DHT22;3399;52.530;13.304;2023-05-10T10:37:51;20.20;70.30
6724;DHT22;3399;52.530;13.304;2023-05-10T10:40:33;20.30;69.20
6724;DHT22;3399;52.530;13.304;2023-05-10T10:43:22;20.30;67.50
6724;DHT22;3399;52.530;13.304;2023-05-10T10:46:09;20.30;68.30
6724;DHT22;3399;52.530;13.304;2023-05-10T10:48:35;20.40;66.80
6724;DHT22;3399;52.530;13.304;2023-05-10T10:51:01;20.40;66.60
6724;DHT22;3399;52.530;13.304;2023-05-10T10:53:27;20.60;69.20
6724;DHT22;3399;52.530;13.304;2023-05-10T10:56:06;20.80;68.90
6724;DHT22;3399;52.530;13.304;2023-05-10T10:58:33;21.10;66.80
6724;DHT22;3399;52.530;13.304;2023-05-10T11:01:18;21.30;64.70
6724;DHT22;3399;52.530;13.304;2023-05-10T11:06:31;21.40;64.90
6724;DHT22;3399;52.530;13.304;2023-05-10T11:08:58;21.50;64.50
6724;DHT22;3399;52.530;13.304;2023-05-10T11:11:23;21.60;63.50
6724;DHT22;3399;52.530;13.304;2023-05-10T11:13:49;21.80;63.50
6724;DHT22;3399;52.530;13.304;2023-05-10T11:16:20;22.10;63.30
6724;DHT22;3399;52.530;13.304;2023-05-10T11:19:03;22.30;63.10
6724;DHT22;3399;52.530;13.304;2023-05-10T11:21:30;22.50;61.50
6724;DHT22;3399;52.530;13.304;2023-05-10T11:23:57;22.40;61.10
6724;DHT22;3399;52.530;13.304;2023-05-10T11:26:24;22.20;62.70
6724;DHT22;3399;52.530;13.304;2023-05-10T11:28:53;22.30;62.50
6724;DHT22;3399;52.530;13.304;2023-05-10T11:31:21;22.40;60.60
6724;DHT22;3399;52.530;13.304;2023-05-10T11:33:49;22.50;60.70
6724;DHT22;3399;52.530;13.304;2023-05-10T11:36:19;22.70;61.20
6724;DHT22;3399;52.530;13.304;2023-05-10T11:38:46;22.90;60.60
6724;DHT22;3399;52.530;13.304;2023-05-10T11:41:12;22.90;60.20
6724;DHT22;3399;52.530;13.304;2023-05-10T11:43:39;23.30;58.20
6724;DHT22;3399;52.530;13.304;2023-05-10T11:46:10;23.50;58.40
6724;DHT22;3399;52.530;13.304;2023-05-10T11:48:36;23.50;58.70
6724;DHT22;3399;52.530;13.304;2023-05-10T11:51:02;23.50;57.30
6724;DHT22;3399;52.530;13.304;2023-05-10T11:53:30;23.70;59.90
6724;DHT22;3399;52.530;13.304;2023-05-10T11:56:03;23.50;55.60
6724;DHT22;3399;52.530;13.304;2023-05-10T11:58:30;23.20;56.00
6724;DHT22;3399;52.530;13.304;2023-05-10T12:00:55;23.80;54.90
6724;DHT22;3399;52.530;13.304;2023-05-10T12:03:21;24.20;54.20
6724;DHT22;3399;52.530;13.304;2023-05-10T12:05:46;23.90;54.60
6724;DHT22;3399;52.530;13.304;2023-05-10T12:08:13;24.20;52.60
6724;DHT22;3399;52.530;13.304;2023-05-10T12:10:39;23.50;53.90
6724;DHT22;3399;52.530;13.304;2023-05-10T12:13:05;23.70;55.20
6724;DHT22;3399;52.530;13.304;2023-05-10T12:15:30;24.00;54.80
6724;DHT22;3399;52.530;13.304;2023-05-10T12:17:56;23.90;53.50
6724;DHT22;3399;52.530;13.304;2023-05-10T12:20:23;24.30;53.90
6724;DHT22;3399;52.530;13.304;2023-05-10T12:22:55;24.20;53.70
6724;DHT22;3399;52.530;13.304;2023-05-10T12:25:22;24.30;55.40
6724;DHT22;3399;52.530;13.304;2023-05-10T12:27:49;24.40;53.60
6724;DHT22;3399;52.530;13.304;2023-05-10T12:30:20;24.90;52.80
6724;DHT22;3399;52.530;13.304;2023-05-10T12:32:46;24.80;51.30
6724;DHT22;3399;52.530;13.304;2023-05-10T12:35:11;24.20;53.10
6724;DHT22;3399;52.530;13.304;2023-05-10T12:37:37;24.70;55.00
6724;DHT22;3399;52.530;13.304;2023-05-10T12:40:08;24.90;53.50
6724;DHT22;3399;52.530;13.304;2023-05-10T12:42:35;25.10;53.30
6724;DHT22;3399;52.530;13.304;2023-05-10T12:45:04;25.60;49.50
6724;DHT22;3399;52.530;13.304;2023-05-10T12:47:31;25.30;50.30
6724;DHT22;3399;52.530;13.304;2023-05-10T12:49:57;24.90;51.30
6724;DHT22;3399;52.530;13.304;2023-05-10T12:52:23;24.90;52.40
6724;DHT22;3399;52.530;13.304;2023-05-10T12:54:48;25.40;52.40
6724;DHT22;3399;52.530;13.304;2023-05-10T12:57:14;25.80;50.80
6724;DHT22;3399;52.530;13.304;2023-05-10T12:59:40;25.80;52.30
6724;DHT22;3399;52.530;13.304;2023-05-10T13:02:06;25.60;50.40
6724;DHT22;3399;52.530;13.304;2023-05-10T13:04:32;25.80;50.40
6724;DHT22;3399;52.530;13.304;2023-05-10T13:06:57;25.40;51.00
6724;DHT22;3399;52.530;13.304;2023-05-10T13:09:27;25.60;49.80
6724;DHT22;3399;52.530;13.304;2023-05-10T13:11:54;25.80;52.40
6724;DHT22;3399;52.530;13.304;2023-05-10T13:14:20;26.10;50.90
6724;DHT22;3399;52.530;13.304;2023-05-10T13:16:47;26.00;49.70
6724;DHT22;3399;52.530;13.304;2023-05-10T13:19:13;26.00;50.70
6724;DHT22;3399;52.530;13.304;2023-05-10T13:21:38;26.10;49.90
6724;DHT22;3399;52.530;13.304;2023-05-10T13:24:06;26.20;49.80
6724;DHT22;3399;52.530;13.304;2023-05-10T13:26:32;26.20;48.30
6724;DHT22;3399;52.530;13.304;2023-05-10T13:28:57;26.30;48.10
6724;DHT22;3399;52.530;13.304;2023-05-10T13:31:23;26.30;49.30
6724;DHT22;3399;52.530;13.304;2023-05-10T13:33:48;25.80;49.40
6724;DHT22;3399;52.530;13.304;2023-05-10T13:36:14;25.90;48.70
6724;DHT22;3399;52.530;13.304;2023-05-10T13:38:39;26.10;48.10
6724;DHT22;3399;52.530;13.304;2023-05-10T13:41:05;26.50;48.00
6724;DHT22;3399;52.530;13.304;2023-05-10T13:43:31;26.40;47.80
6724;DHT22;3399;52.530;13.304;2023-05-10T13:45:56;26.70;47.30
6724;DHT22;3399;52.530;13.304;2023-05-10T13:48:22;26.70;46.30
6724;DHT22;3399;52.530;13.304;2023-05-10T13:50:47;26.50;46.10
6724;DHT22;3399;52.530;13.304;2023-05-10T13:53:13;26.20;47.20
6724;DHT22;3399;52.530;13.304;2023-05-10T13:55:39;26.30;48.30
6724;DHT22;3399;52.530;13.304;2023-05-10T13:58:05;26.50;47.60
6724;DHT22;3399;52.530;13.304;2023-05-10T14:00:30;25.80;46.80
6724;DHT22;3399;52.530;13.304;2023-05-10T14:02:56;25.50;47.60
6724;DHT22;3399;52.530;13.304;2023-05-10T14:05:21;25.70;50.90
6724;DHT22;3399;52.530;13.304;2023-05-10T14:07:48;26.20;47.50
6724;DHT22;3399;52.530;13.304;2023-05-10T14:10:16;26.50;45.90
6724;DHT22;3399;52.530;13.304;2023-05-10T14:12:42;26.70;46.40
6724;DHT22;3399;52.530;13.304;2023-05-10T14:15:07;26.30;46.90
6724;DHT22;3399;52.530;13.304;2023-05-10T14:17:35;26.20;47.10
6724;DHT22;3399;52.530;13.304;2023-05-10T14:20:01;26.50;45.80
6724;DHT22;3399;52.530;13.304;2023-05-10T14:22:27;26.20;45.60
6724;DHT22;3399;52.530;13.304;2023-05-10T14:24:52;26.40;47.30
6724;DHT22;3399;52.530;13.304;2023-05-10T14:27:18;26.60;46.20
6724;DHT22;3399;52.530;13.304;2023-05-10T14:29:43;26.80;45.30
6724;DHT22;3399;52.530;13.304;2023-05-10T14:32:10;26.40;44.30
6724;DHT22;3399;52.530;13.304;2023-05-10T14:34:36;26.60;45.40
6724;DHT22;3399;52.530;13.304;2023-05-10T14:37:01;26.80;43.90
6724;DHT22;3399;52.530;13.304;2023-05-10T14:39:27;26.00;43.70
6724;DHT22;3399;52.530;13.304;2023-05-10T14:41:55;26.00;45.20
6724;DHT22;3399;52.530;13.304;2023-05-10T14:44:21;26.00;44.90
6724;DHT22;3399;52.530;13.304;2023-05-10T14:46:46;26.30;45.30
6724;DHT22;3399;52.530;13.304;2023-05-10T14:49:13;26.20;44.10
6724;DHT22;3399;52.530;13.304;2023-05-10T14:51:39;25.80;45.70
6724;DHT22;3399;52.530;13.304;2023-05-10T14:54:05;25.80;44.70
6724;DHT22;3399;52.530;13.304;2023-05-10T14:56:31;26.00;45.90
6724;DHT22;3399;52.530;13.304;2023-05-10T14:58:56;25.50;44.60
6724;DHT22;3399;52.530;13.304;2023-05-10T15:01:22;25.20;45.10
6724;DHT22;3399;52.530;13.304;2023-05-10T15:03:48;24.80;46.00
6724;DHT22;3399;52.530;13.304;2023-05-10T15:06:14;24.90;45.40
6724;DHT22;3399;52.530;13.304;2023-05-10T15:08:41;24.90;47.30
6724;DHT22;3399;52.530;13.304;2023-05-10T15:11:06;25.00;45.90
6724;DHT22;3399;52.530;13.304;2023-05-10T15:13:32;25.20;46.50
6724;DHT22;3399;52.530;13.304;2023-05-10T15:16:00;25.30;46.10
6724;DHT22;3399;52.530;13.304;2023-05-10T15:18:26;25.40;45.50
6724;DHT22;3399;52.530;13.304;2023-05-10T15:20:52;25.30;46.70
6724;DHT22;3399;52.530;13.304;2023-05-10T15:23:18;25.20;45.50
6724;DHT22;3399;52.530;13.304;2023-05-10T15:25:43;25.20;46.50
6724;DHT22;3399;52.530;13.304;2023-05-10T15:28:09;25.50;46.70
6724;DHT22;3399;52.530;13.304;2023-05-10T15:30:34;26.10;47.20
6724;DHT22;3399;52.530;13.304;2023-05-10T15:33:00;26.70;44.60
6724;DHT22;3399;52.530;13.304;2023-05-10T15:35:26;26.90;45.30
6724;DHT22;3399;52.530;13.304;2023-05-10T15:37:52;26.90;44.80
6724;DHT22;3399;52.530;13.304;2023-05-10T15:40:17;27.10;43.10
6724;DHT22;3399;52.530;13.304;2023-05-10T15:42:43;26.80;43.70
6724;DHT22;3399;52.530;13.304;2023-05-10T15:45:09;26.70;43.30
6724;DHT22;3399;52.530;13.304;2023-05-10T15:47:35;26.20;43.80
6724;DHT22;3399;52.530;13.304;2023-05-10T15:50:01;25.60;44.80
6724;DHT22;3399;52.530;13.304;2023-05-10T15:52:26;25.20;46.70
6724;DHT22;3399;52.530;13.304;2023-05-10T15:54:52;25.20;48.00
6724;DHT22;3399;52.530;13.304;2023-05-10T15:57:18;25.30;45.50
6724;DHT22;3399;52.530;13.304;2023-05-10T15:59:43;25.20;46.40
6724;DHT22;3399;52.530;13.304;2023-05-10T16:02:10;25.20;46.00
6724;DHT22;3399;52.530;13.304;2023-05-10T16:04:36;25.20;45.60